Time;durP1;ratioP1;P1;durP2;ratioP2;P2;SDS_P1;SDS_P2;PMS_P1;PMS_P2;Temp;Humidity;BMP_temperature;BMP_pressure;BME280_temperature;BME280_humidity;BME280_pressure;Samples;Min_cycle;Max_cycle;Signal;HPM_P1;HPM_P2
2021/05/06 00:33:14;;;;;;;4.35;1.73;;;332.80;1792.00;;;;;;5078542;28;20541;-79
2021/05/06 00:35:40;;;;;;;2.90;1.40;;;308.10;1792.00;;;;;;5080466;28;20017;-81
2021/05/06 00:38:12;;;;;;;3.03;1.40;;;308.10;1792.00;;;;;;5076133;28;20017;-83
2021/05/06 01:06:44;;;;;;;3.17;1.17;;;307.90;1792.00;;;;;;5092068;28;20016;-79
2021/05/06 01:09:12;;;;;;;4.88;1.80;;;307.90;1817.60;;;;;;5090445;28;20074;-79
2021/05/06 01:11:45;;;;;;;4.07;1.70;;;307.70;1843.20;;;;;;5091794;28;20047;-78
2021/05/06 01:14:11;;;;;;;3.30;2.22;;;307.70;1868.80;;;;;;5070596;28;20051;-77
2021/05/06 01:16:37;;;;;;;3.45;1.48;;;307.70;1868.80;;;;;;5071550;28;20052;-78
2021/05/06 01:19:05;;;;;;;6.03;2.10;;;307.60;1868.80;;;;;;5070622;28;20021;-78
2021/05/06 01:21:30;;;;;;;5.88;2.55;;;307.60;1868.80;;;;;;5070213;28;20024;-80
2021/05/06 01:23:57;;;;;;;3.75;1.50;;;307.70;1868.80;;;;;;5089052;28;20533;-78
2021/05/06 01:29:04;;;;;;;4.20;1.83;;;307.80;1843.20;;;;;;5091820;28;20060;-78
2021/05/06 01:31:33;;;;;;;4.30;1.85;;;307.80;1843.20;;;;;;5086305;28;20028;-77
2021/05/06 01:36:34;;;;;;;3.92;1.98;;;307.80;1843.20;;;;;;5094574;28;20020;-78
2021/05/06 02:00:20;;;;;;;8.23;4.18;;;307.80;1894.40;;;;;;5089006;28;20452;-77
2021/05/06 02:02:46;;;;;;;5.72;4.40;;;307.70;1894.40;;;;;;5084442;28;20031;-79
2021/05/06 02:05:13;;;;;;;7.28;4.15;;;307.70;1920.00;;;;;;5090968;28;20056;-78
2021/05/06 02:07:41;;;;;;;5.75;4.00;;;307.70;1920.00;;;;;;5073893;28;20029;-77
2021/05/06 02:10:11;;;;;;;6.90;2.78;;;307.70;1945.60;;;;;;5088624;28;20070;-77
2021/05/06 02:12:38;;;;;;;3.60;2.10;;;307.60;1945.60;;;;;;5073928;28;20024;-77
2021/05/06 02:15:14;;;;;;;4.68;2.30;;;307.60;1971.20;;;;;;5073243;28;20036;-77
2021/05/06 02:17:41;;;;;;;5.70;1.88;;;307.60;1971.20;;;;;;5086442;28;20230;-77
2021/05/06 02:20:09;;;;;;;3.38;1.77;;;307.60;1971.20;;;;;;5073465;28;20111;-77
2021/05/06 02:22:34;;;;;;;2.15;1.40;;;307.60;1971.20;;;;;;5094173;28;20047;-76
2021/05/06 02:25:01;;;;;;;1.90;1.33;;;307.60;1971.20;;;;;;5089019;28;20488;-76
2021/05/06 02:27:26;;;;;;;3.78;1.52;;;307.60;1971.20;;;;;;5079621;28;20119;-76
2021/05/06 02:29:53;;;;;;;6.43;1.70;;;307.60;1971.20;;;;;;5076828;28;20542;-76
2021/05/06 02:32:19;;;;;;;2.35;1.20;;;307.70;1945.60;;;;;;5089600;28;20392;-77
2021/05/06 02:34:48;;;;;;;1.98;1.40;;;307.70;1920.00;;;;;;5077924;28;20032;-79
2021/05/06 02:37:14;;;;;;;1.00;0.93;;;307.60;1920.00;;;;;;5082271;28;20488;-78
2021/05/06 02:39:40;;;;;;;4.63;1.75;;;307.60;1920.00;;;;;;5094782;28;20040;-79
2021/05/06 02:42:06;;;;;;;2.92;1.85;;;307.60;1920.00;;;;;;5093260;28;20042;-78
2021/05/06 02:44:35;;;;;;;2.95;1.10;;;307.70;1920.00;;;;;;5078745;28;20119;-78
2021/05/06 02:47:01;;;;;;;4.57;2.15;;;307.70;1920.00;;;;;;5090838;28;20105;-77
2021/05/06 02:49:27;;;;;;;4.43;2.00;;;307.70;1894.40;;;;;;5092941;28;20500;-78
2021/05/06 02:51:56;;;;;;;2.13;1.50;;;307.60;1894.40;;;;;;5073605;28;20027;-78
2021/05/06 02:54:23;;;;;;;9.70;2.40;;;307.70;1894.40;;;;;;5072713;28;20025;-80
2021/05/06 02:57:02;;;;;;;5.43;1.95;;;307.70;1894.40;;;;;;5092709;28;20059;-77
2021/05/06 03:04:38;;;;;;;6.25;2.45;;;307.70;1868.80;;;;;;5091481;28;20708;-77
2021/05/06 03:07:07;;;;;;;2.95;1.83;;;307.80;1868.80;;;;;;5092062;28;20020;-79
2021/05/06 03:09:52;;;;;;;4.50;2.00;;;307.70;1843.20;;;;;;5093992;28;20073;-77
2021/05/06 03:23:08;;;;;;;3.33;1.60;;;307.90;1817.60;;;;;;5094010;28;20046;-77
2021/05/06 03:25:33;;;;;;;2.35;1.50;;;308.00;1792.00;;;;;;5076198;28;20488;-79
2021/05/06 03:28:07;;;;;;;3.80;1.92;;;308.00;1766.40;;;;;;5082756;28;20066;-78
2021/05/06 03:41:38;;;;;;;2.08;1.15;;;332.80;1740.80;;;;;;5078952;28;20442;-76
2021/05/06 03:50:11;;;;;;;4.47;1.65;;;332.80;1715.20;;;;;;5072958;28;20031;-76
2021/05/06 04:37:39;;;;;;;3.78;1.95;;;333.40;1484.80;;;;;;5071782;28;20388;-78
2021/05/06 05:06:59;;;;;;;3.67;1.90;;;333.60;1484.80;;;;;;5076590;28;20499;-76
2021/05/06 05:11:56;;;;;;;4.68;2.10;;;333.60;1510.40;;;;;;5075513;28;20047;-75
2021/05/06 05:25:03;;;;;;;10.20;2.80;;;333.70;1510.40;;;;;;5030013;28;20026;-76
2021/05/06 05:27:29;;;;;;;6.25;1.88;;;333.70;1510.40;;;;;;5027447;28;20512;-75
2021/05/06 05:29:55;;;;;;;3.95;2.05;;;358.40;1510.40;;;;;;5028966;28;20060;-75
2021/05/06 05:32:21;;;;;;;4.80;1.90;;;358.40;1510.40;;;;;;5017208;28;20029;-75
2021/05/06 05:35:00;;;;;;;4.00;2.05;;;358.40;1510.40;;;;;;5011073;28;20018;-76
2021/05/06 05:37:32;;;;;;;7.50;3.58;;;358.50;1510.40;;;;;;5018899;28;20462;-77
2021/05/06 05:40:08;;;;;;;12.75;3.63;;;358.40;1510.40;;;;;;5023245;28;20028;-76
2021/05/06 05:42:44;;;;;;;;;;;358.40;1536.00;;;;;;5010147;28;20046;-78
2021/05/06 05:56:00;;;;;;;3.33;1.70;;;358.80;1510.40;;;;;;5021276;28;20043;-76
2021/05/06 05:58:26;;;;;;;3.00;1.70;;;358.90;1484.80;;;;;;5005457;28;20116;-77
2021/05/06 06:00:52;;;;;;;8.80;1.90;;;359.00;1459.20;;;;;;5021511;28;20044;-76
2021/05/06 06:03:17;;;;;;;3.97;1.83;;;358.90;1459.20;;;;;;5082921;28;20597;-77
2021/05/06 06:05:43;;;;;;;2.90;1.65;;;359.10;1433.60;;;;;;5086808;28;20047;-77
2021/05/06 06:08:09;;;;;;;4.05;1.52;;;359.00;1433.60;;;;;;5083672;28;20024;-77
2021/05/06 06:10:35;;;;;;;4.82;2.08;;;359.00;1459.20;;;;;;5083667;28;20079;-77
2021/05/06 06:13:00;;;;;;;2.53;1.42;;;359.10;1459.20;;;;;;5078433;28;20024;-76
2021/05/06 06:17:55;;;;;;;4.40;2.35;;;359.20;1408.00;;;;;;5082955;28;20024;-75
2021/05/06 06:20:21;;;;;;;3.58;1.95;;;359.20;1408.00;;;;;;5075285;28;20032;-76
2021/05/06 06:22:47;;;;;;;2.38;1.45;;;359.30;1382.40;;;;;;5086725;28;20053;-75
2021/05/06 06:25:12;;;;;;;3.05;1.60;;;384.10;1382.40;;;;;;5087832;28;20111;-76
2021/05/06 06:27:38;;;;;;;4.57;1.35;;;384.10;1356.80;;;;;;5080457;28;20111;-76
2021/05/06 06:30:08;;;;;;;4.13;1.60;;;384.10;1331.20;;;;;;5085075;28;20046;-75
2021/05/06 06:32:34;;;;;;;3.55;1.88;;;384.00;1356.80;;;;;;5085897;28;20021;-76
2021/05/06 06:34:59;;;;;;;3.00;1.33;;;359.30;1331.20;;;;;;5092539;28;20035;-76
2021/05/06 06:37:25;;;;;;;4.35;1.30;;;359.20;1356.80;;;;;;5081933;28;20431;-76
2021/05/06 06:39:51;;;;;;;6.57;2.20;;;359.30;1356.80;;;;;;5074252;28;20414;-77
2021/05/06 06:42:17;;;;;;;9.13;3.88;;;359.20;1356.80;;;;;;5084125;28;20036;-76
2021/05/06 06:44:43;;;;;;;11.93;4.10;;;359.20;1356.80;;;;;;5080419;28;20468;-77
2021/05/06 06:47:08;;;;;;;13.45;3.33;;;359.20;1356.80;;;;;;5085150;28;20029;-76
2021/05/06 06:49:39;;;;;;;16.77;3.75;;;359.30;1356.80;;;;;;5088147;28;20023;-76
2021/05/06 06:52:08;;;;;;;12.35;3.55;;;384.10;1356.80;;;;;;5089399;28;20024;-76
2021/05/06 06:54:36;;;;;;;15.05;3.63;;;384.30;1356.80;;;;;;5079688;28;20048;-76
2021/05/06 06:57:06;;;;;;;13.48;3.35;;;384.30;1331.20;;;;;;5085069;28;20024;-77
2021/05/06 06:59:32;;;;;;;6.80;2.35;;;384.40;1331.20;;;;;;5092091;28;20035;-76
2021/05/06 07:01:58;;;;;;;5.95;1.77;;;384.50;1331.20;;;;;;5081639;28;20035;-75
2021/05/06 07:04:24;;;;;;;5.95;1.67;;;384.50;1331.20;;;;;;5088179;28;20052;-76
2021/05/06 07:06:49;;;;;;;5.15;1.40;;;384.30;1305.60;;;;;;5089138;28;20025;-75
2021/05/06 07:09:15;;;;;;;2.67;1.10;;;384.20;1331.20;;;;;;5087672;28;20032;-75
2021/05/06 07:11:41;;;;;;;5.03;1.90;;;384.30;1305.60;;;;;;5089120;28;20134;-76
2021/05/06 07:14:07;;;;;;;10.27;2.05;;;384.50;1305.60;;;;;;5074225;28;20111;-76
2021/05/06 07:16:33;;;;;;;12.00;3.30;;;384.50;1305.60;;;;;;5088508;28;20036;-75
2021/05/06 07:18:59;;;;;;;10.43;2.13;;;384.40;1280.00;;;;;;5089833;28;20463;-75
2021/05/06 07:21:26;;;;;;;4.38;2.00;;;384.50;1280.00;;;;;;5094851;28;20369;-75
2021/05/06 07:23:54;;;;;;;4.40;2.10;;;384.50;1305.60;;;;;;5096307;28;20055;-76
2021/05/06 07:26:24;;;;;;;6.95;2.05;;;384.30;1305.60;;;;;;5093052;28;20024;-76
2021/05/06 07:28:51;;;;;;;5.88;2.15;;;384.30;1331.20;;;;;;5090496;28;20028;-77
2021/05/06 07:31:17;;;;;;;3.80;1.65;;;384.40;1356.80;;;;;;5089000;28;20029;-74
2021/05/06 07:33:46;;;;;;;2.17;1.38;;;384.40;1356.80;;;;;;5073571;28;20058;-74
2021/05/06 07:36:12;;;;;;;2.78;1.92;;;384.60;1305.60;;;;;;5085643;28;20021;-74
2021/05/06 07:38:38;;;;;;;3.80;1.75;;;384.50;1331.20;;;;;;5090453;28;20386;-78
2021/05/06 07:41:05;;;;;;;3.90;1.65;;;384.50;1331.20;;;;;;5090379;28;20043;-74
2021/05/06 07:43:31;;;;;;;4.97;2.45;;;384.50;1331.20;;;;;;5089901;28;20039;-75
2021/05/06 07:45:57;;;;;;;2.63;1.40;;;384.70;1331.20;;;;;;5091850;28;20103;-74
2021/05/06 07:48:24;;;;;;;7.45;2.75;;;409.80;1331.20;;;;;;5092064;28;20388;-74
2021/05/06 07:50:50;;;;;;;3.75;1.73;;;409.90;1280.00;;;;;;5090841;28;20030;-74
2021/05/06 07:53:22;;;;;;;4.05;1.23;;;410.30;1280.00;;;;;;5087865;28;20029;-75
2021/05/06 07:55:48;;;;;;;2.28;0.98;;;435.20;1228.80;;;;;;5092782;28;20785;-74
2021/05/06 07:58:14;;;;;;;4.30;1.60;;;435.30;1203.20;;;;;;5090221;28;20047;-73
2021/05/06 08:00:40;;;;;;;3.95;1.52;;;435.50;1203.20;;;;;;5074068;28;20032;-74
2021/05/06 08:03:07;;;;;;;5.93;2.08;;;435.50;1228.80;;;;;;5088945;28;20144;-74
2021/05/06 08:05:33;;;;;;;4.10;2.45;;;435.60;1203.20;;;;;;5092068;28;20016;-74
2021/05/06 08:07:59;;;;;;;2.67;1.10;;;435.50;1228.80;;;;;;5087378;28;20046;-74
2021/05/06 08:10:26;;;;;;;6.00;2.00;;;410.50;1228.80;;;;;;5088725;28;20049;-74
2021/05/06 08:12:54;;;;;;;5.57;1.90;;;435.20;1203.20;;;;;;5089961;28;20030;-74
2021/05/06 08:15:20;;;;;;;5.43;1.67;;;435.20;1228.80;;;;;;5088736;28;20487;-74
2021/05/06 08:17:46;;;;;;;4.05;2.30;;;435.50;1228.80;;;;;;5074069;28;20024;-74
2021/05/06 08:20:14;;;;;;;2.22;1.40;;;435.50;1228.80;;;;;;5089551;28;20028;-74
2021/05/06 08:22:40;;;;;;;4.00;1.60;;;435.20;1254.40;;;;;;5090128;28;20028;-74
2021/05/06 08:25:12;;;;;;;2.20;1.52;;;435.20;1203.20;;;;;;5092041;28;20063;-74
2021/05/06 08:27:39;;;;;;;4.00;2.22;;;435.50;1203.20;;;;;;5089546;28;20032;-74
2021/05/06 08:30:06;;;;;;;2.67;1.20;;;410.40;1228.80;;;;;;5088130;28;20032;-75
2021/05/06 08:32:32;;;;;;;5.50;2.17;;;435.40;1203.20;;;;;;5087478;28;20016;-74
2021/05/06 08:34:59;;;;;;;1.63;0.98;;;435.50;1203.20;;;;;;5091764;28;20579;-74
2021/05/06 08:37:25;;;;;;;1.45;1.10;;;435.90;1177.60;;;;;;5088751;28;20035;-74
2021/05/06 08:39:53;;;;;;;1.50;1.20;;;436.00;1152.00;;;;;;5089130;28;20033;-74
2021/05/06 08:42:19;;;;;;;1.83;1.02;;;436.10;1126.40;;;;;;5090597;28;20043;-74
2021/05/06 08:44:44;;;;;;;1.30;1.10;;;461.00;1126.40;;;;;;5086232;28;20439;-74
2021/05/06 08:47:21;;;;;;;2.35;1.20;;;461.10;1100.80;;;;;;5086894;28;20028;-75
2021/05/06 08:49:47;;;;;;;4.55;1.67;;;461.00;1126.40;;;;;;5090959;28;20025;-75
2021/05/06 08:52:17;;;;;;;2.22;1.33;;;461.40;1126.40;;;;;;5090766;28;20028;-74
2021/05/06 08:54:43;;;;;;;3.15;1.55;;;461.70;1075.20;;;;;;5088170;28;20016;-74
2021/05/06 08:57:09;;;;;;;4.28;1.40;;;486.60;1100.80;;;;;;5084096;28;20066;-75
2021/05/06 08:59:35;;;;;;;3.30;1.20;;;461.20;1100.80;;;;;;5090779;28;20051;-74
2021/05/06 09:02:00;;;;;;;3.03;1.60;;;461.40;1100.80;;;;;;5090536;28;20122;-74
2021/05/06 09:04:26;;;;;;;3.78;1.90;;;461.40;1100.80;;;;;;5088659;28;20031;-74
2021/05/06 09:07:01;;;;;;;2.83;1.98;;;461.40;1100.80;;;;;;5087431;28;20028;-74
2021/05/06 09:09:28;;;;;;;5.57;1.83;;;461.30;1100.80;;;;;;5088832;28;20383;-74
2021/05/06 09:11:57;;;;;;;3.53;1.55;;;461.50;1100.80;;;;;;5092932;28;20046;-74
2021/05/06 09:14:41;;;;;;;8.52;3.47;;;486.40;1075.20;;;;;;5087860;28;20373;-74
2021/05/06 09:17:33;;;;;;;2.80;1.65;;;486.50;1075.20;;;;;;5085799;28;20028;-75
2021/05/06 09:20:05;;;;;;;2.55;1.35;;;486.70;1100.80;;;;;;5088351;28;20024;-76
2021/05/06 09:22:36;;;;;;;2.53;1.70;;;461.60;1126.40;;;;;;5090335;28;20040;-76
2021/05/06 09:25:34;;;;;;;3.05;1.73;;;486.70;1100.80;;;;;;5091454;28;20056;-76
2021/05/06 09:28:15;;;;;;;3.45;1.60;;;487.10;1100.80;;;;;;5104404;28;20374;-76
2021/05/06 09:30:54;;;;;;;2.90;1.80;;;486.70;1126.40;;;;;;5085515;28;20073;-77
2021/05/06 09:33:29;;;;;;;3.30;1.85;;;486.70;1126.40;;;;;;5103183;28;20110;-75
2021/05/06 09:35:55;;;;;;;2.70;1.43;;;486.50;1126.40;;;;;;5098283;28;20423;-75
2021/05/06 09:38:26;;;;;;;2.70;1.80;;;461.50;1152.00;;;;;;5102820;28;20035;-75
2021/05/06 09:40:53;;;;;;;3.90;1.92;;;461.40;1152.00;;;;;;5095525;28;20038;-75
2021/05/06 09:43:24;;;;;;;3.33;1.60;;;486.50;1126.40;;;;;;5103882;28;20134;-75
2021/05/06 09:45:50;;;;;;;3.88;1.73;;;486.50;1152.00;;;;;;5097750;28;20032;-75
2021/05/06 09:48:16;;;;;;;3.05;1.58;;;512.00;1075.20;;;;;;5099104;28;20031;-75
2021/05/06 09:50:47;;;;;;;3.08;2.03;;;538.40;998.40;;;;;;5100209;28;20024;-74
2021/05/06 09:53:17;;;;;;;2.75;1.40;;;538.10;998.40;;;;;;5101120;28;20016;-75
2021/05/06 09:55:46;;;;;;;2.08;1.23;;;537.90;998.40;;;;;;5097659;28;20028;-75
2021/05/06 09:58:23;;;;;;;1.70;1.20;;;563.80;947.20;;;;;;5100597;28;20024;-73
2021/05/06 10:00:51;;;;;;;2.00;1.27;;;563.90;921.60;;;;;;5105454;28;20111;-74
2021/05/06 10:03:22;;;;;;;3.83;1.90;;;589.30;870.40;;;;;;5105903;28;20434;-75
2021/05/06 10:05:51;;;;;;;2.13;1.23;;;589.00;870.40;;;;;;5093675;28;20057;-75
2021/05/06 10:08:18;;;;;;;2.40;1.58;;;589.20;870.40;;;;;;5107546;28;20027;-75
2021/05/06 10:10:44;;;;;;;1.67;1.25;;;615.00;793.60;;;;;;5108332;28;20160;-75
2021/05/06 10:13:11;;;;;;;2.45;1.48;;;615.10;742.40;;;;;;5112136;28;20027;-75
2021/05/06 10:15:39;;;;;;;2.92;2.28;;;589.70;793.60;;;;;;5107090;28;20027;-75
2021/05/06 10:18:05;;;;;;;1.98;1.30;;;640.40;716.80;;;;;;5088780;28;20119;-75
2021/05/06 10:20:31;;;;;;;3.67;1.67;;;665.90;742.40;;;;;;5100808;28;20040;-75
2021/05/06 10:22:58;;;;;;;4.22;2.67;;;666.00;742.40;;;;;;5096470;28;20028;-74
2021/05/06 10:25:25;;;;;;;1.70;1.20;;;666.50;716.80;;;;;;5108980;28;20034;-77
2021/05/06 10:27:52;;;;;;;4.22;1.40;;;640.60;716.80;;;;;;5096487;28;20672;-75
2021/05/06 10:30:19;;;;;;;4.22;1.90;;;640.80;742.40;;;;;;5102725;28;20111;-75
2021/05/06 10:32:46;;;;;;;3.20;1.90;;;640.80;742.40;;;;;;5091394;28;20019;-75
2021/05/06 10:35:15;;;;;;;3.40;1.95;;;666.20;742.40;;;;;;5088884;28;20488;-75
2021/05/06 10:37:44;;;;;;;4.07;1.10;;;666.40;716.80;;;;;;5094808;28;20102;-76
2021/05/06 10:40:27;;;;;;;2.30;1.20;;;666.40;691.20;;;;;;5088822;28;20077;-76
2021/05/06 10:42:55;;;;;;;1.92;1.13;;;640.70;716.80;;;;;;5107215;28;20115;-76
2021/05/06 10:45:21;;;;;;;5.15;1.65;;;640.60;716.80;;;;;;5098866;28;20378;-77
2021/05/06 10:47:56;;;;;;;2.70;1.15;;;615.30;742.40;;;;;;5088089;28;20397;-77
2021/05/06 10:50:39;;;;;;;2.97;1.30;;;614.50;793.60;;;;;;5069948;28;20120;-77
2021/05/06 10:53:07;;;;;;;2.55;1.25;;;614.50;742.40;;;;;;5093601;28;20016;-76
2021/05/06 10:55:53;;;;;;;4.70;2.00;;;589.60;793.60;;;;;;5089203;28;20028;-77
2021/05/06 10:58:28;;;;;;;5.50;2.40;;;589.50;819.20;;;;;;5087289;28;20024;-77
2021/05/06 11:01:06;;;;;;;3.20;1.37;;;589.20;844.80;;;;;;5100110;28;20032;-77
2021/05/06 11:03:32;;;;;;;4.18;2.33;;;588.90;819.20;;;;;;5089484;28;20446;-77
2021/05/06 11:05:59;;;;;;;3.22;1.80;;;563.20;844.80;;;;;;5108173;28;20016;-76
2021/05/06 11:08:35;;;;;;;2.67;1.30;;;563.50;844.80;;;;;;5099005;28;20026;-77
2021/05/06 11:11:02;;;;;;;5.68;2.60;;;563.60;844.80;;;;;;5091020;28;20098;-78
2021/05/06 11:13:48;;;;;;;2.67;1.50;;;614.40;819.20;;;;;;5099146;28;20034;-77
2021/05/06 11:16:18;;;;;;;4.50;1.30;;;640.10;742.40;;;;;;5098945;28;20102;-76
2021/05/06 11:18:52;;;;;;;2.63;1.33;;;589.70;742.40;;;;;;5100827;28;20035;-76
2021/05/06 11:21:29;;;;;;;2.33;1.20;;;589.50;742.40;;;;;;5093210;28;20051;-77
2021/05/06 11:24:25;;;;;;;2.20;1.58;;;640.10;665.60;;;;;;5105738;27;20442;-77
2021/05/06 11:27:08;;;;;;;5.50;2.23;;;640.60;665.60;;;;;;5087395;28;20384;-77
2021/05/06 11:29:37;;;;;;;2.47;1.45;;;691.50;640.00;;;;;;5084010;28;20032;-77
2021/05/06 11:32:04;;;;;;;2.65;1.73;;;692.00;614.40;;;;;;5076147;28;20021;-78
2021/05/06 11:34:31;;;;;;;4.72;1.90;;;665.90;691.20;;;;;;5091994;28;20387;-78
2021/05/06 11:37:15;;;;;;;2.72;1.25;;;666.50;665.60;;;;;;5102557;28;20036;-77
2021/05/06 11:39:50;;;;;;;3.30;2.22;;;666.10;665.60;;;;;;5081308;28;20040;-78
2021/05/06 11:42:16;;;;;;;5.35;2.55;;;666.20;716.80;;;;;;5081064;28;20028;-78
2021/05/06 11:44:42;;;;;;;2.92;1.40;;;717.00;640.00;;;;;;5088945;28;20023;-77
2021/05/06 11:47:07;;;;;;;3.53;1.85;;;742.40;640.00;;;;;;5087891;28;20097;-78
2021/05/06 11:49:33;;;;;;;2.63;1.48;;;692.10;640.00;;;;;;5090061;28;20526;-78
2021/05/06 11:51:59;;;;;;;2.80;1.48;;;717.40;640.00;;;;;;5077958;28;20049;-77
2021/05/06 11:54:25;;;;;;;3.55;1.70;;;666.30;665.60;;;;;;5076696;28;20155;-77
2021/05/06 11:56:57;;;;;;;2.78;1.65;;;691.60;665.60;;;;;;5083082;28;20039;-78
2021/05/06 11:59:29;;;;;;;2.45;1.60;;;692.00;665.60;;;;;;5084781;28;20024;-78
2021/05/06 12:01:58;;;;;;;5.35;2.55;;;717.70;640.00;;;;;;5088726;28;20158;-78
2021/05/06 12:04:26;;;;;;;4.15;1.83;;;743.10;640.00;;;;;;5100187;28;20028;-77
2021/05/06 12:06:53;;;;;;;2.35;1.50;;;768.60;588.80;;;;;;5089893;28;20101;-78
2021/05/06 12:09:24;;;;;;;2.00;1.40;;;742.90;665.60;;;;;;5081547;28;20086;-78
2021/05/06 12:11:50;;;;;;;3.70;1.58;;;717.20;665.60;;;;;;5086747;28;20084;-78
2021/05/06 12:14:16;;;;;;;3.42;1.73;;;716.90;665.60;;;;;;5084862;28;20031;-78
2021/05/06 12:16:42;;;;;;;3.85;2.08;;;691.20;665.60;;;;;;5083623;28;20020;-78
2021/05/06 12:19:15;;;;;;;8.07;5.60;;;716.80;665.60;;;;;;5085309;28;20032;-77
2021/05/06 12:21:56;;;;;;;3.25;2.30;;;691.70;665.60;;;;;;5089090;28;20029;-76
2021/05/06 12:24:46;;;;;;;3.72;1.83;;;691.80;665.60;;;;;;5079530;28;20041;-77
2021/05/06 12:27:16;;;;;;;3.47;2.10;;;691.40;691.20;;;;;;5070562;28;20036;-76
2021/05/06 12:29:43;;;;;;;3.03;2.03;;;691.50;691.20;;;;;;5084424;28;20024;-77
2021/05/06 12:32:19;;;;;;;8.05;3.97;;;692.00;665.60;;;;;;5071114;28;20525;-77
2021/05/06 12:34:44;;;;;;;;;;;717.20;665.60;;;;;;5087098;28;20033;-78
2021/05/06 12:37:10;;;;;;;6.97;2.85;;;717.50;640.00;;;;;;5083747;28;19910;-77
2021/05/06 12:39:36;;;;;;;5.63;3.45;;;717.00;665.60;;;;;;5088127;28;20032;-77
2021/05/06 12:42:06;;;;;;;9.60;3.28;;;742.40;665.60;;;;;;5077644;28;20086;-78
2021/05/06 12:44:39;;;;;;;4.95;2.22;;;742.60;665.60;;;;;;5076513;28;20437;-78
2021/05/06 12:47:21;;;;;;;6.53;2.47;;;742.40;665.60;;;;;;5086450;28;20028;-79
2021/05/06 12:50:15;;;;;;;5.72;2.35;;;743.10;640.00;;;;;;5081926;28;20020;-78
2021/05/06 12:52:47;;;;;;;3.05;1.88;;;742.40;665.60;;;;;;5078980;28;20024;-78
2021/05/06 12:55:31;;;;;;;3.13;2.10;;;692.10;665.60;;;;;;5083993;28;20024;-77
2021/05/06 12:58:06;;;;;;;3.55;1.92;;;691.50;691.20;;;;;;5078766;28;20040;-78
2021/05/06 13:00:33;;;;;;;4.85;3.22;;;666.30;716.80;;;;;;5082405;28;20027;-81
2021/05/06 13:03:09;;;;;;;3.35;2.28;;;691.40;691.20;;;;;;5098041;28;20047;-82
2021/05/06 13:05:37;;;;;;;4.13;2.33;;;717.00;691.20;;;;;;5083432;28;20043;-81
2021/05/06 13:08:04;;;;;;;3.85;3.03;;;717.50;665.60;;;;;;5075002;28;20050;-81
2021/05/06 13:10:40;;;;;;;5.32;2.20;;;742.90;665.60;;;;;;5091865;28;20039;-82
2021/05/06 13:13:08;;;;;;;5.00;2.97;;;768.20;640.00;;;;;;5086435;28;20040;-81
2021/05/06 13:15:48;;;;;;;6.25;3.50;;;768.60;614.40;;;;;;5085148;28;20021;-81
2021/05/06 13:18:14;;;;;;;3.60;1.60;;;768.80;614.40;;;;;;5094798;28;20476;-81
2021/05/06 13:20:41;;;;;;;9.77;2.83;;;743.10;665.60;;;;;;5090841;28;20028;-81
2021/05/06 13:23:13;;;;;;;3.55;2.63;;;768.30;640.00;;;;;;5082653;28;20491;-82
2021/05/06 13:25:42;;;;;;;3.28;2.22;;;743.20;665.60;;;;;;5091613;28;20051;-81
2021/05/06 13:28:13;;;;;;;3.13;1.63;;;768.50;640.00;;;;;;5086778;28;20032;-81
2021/05/06 13:30:39;;;;;;;2.72;1.38;;;768.10;640.00;;;;;;5087559;28;20032;-79
2021/05/06 13:33:13;;;;;;;3.05;1.83;;;768.30;614.40;;;;;;5093888;28;20024;-80
2021/05/06 13:35:39;;;;;;;5.13;1.90;;;768.90;614.40;;;;;;5084750;28;20028;-79
2021/05/06 13:38:05;;;;;;;2.88;1.75;;;768.80;614.40;;;;;;5098554;28;20024;-79
2021/05/06 13:40:31;;;;;;;3.15;1.77;;;768.00;665.60;;;;;;5086346;28;20184;-78
2021/05/06 13:42:57;;;;;;;3.65;2.35;;;743.10;665.60;;;;;;5089893;28;20534;-76
2021/05/06 13:45:22;;;;;;;4.25;2.42;;;742.80;691.20;;;;;;5085374;28;20452;-78
2021/05/06 13:47:48;;;;;;;4.07;2.63;;;768.00;640.00;;;;;;5090338;28;20037;-78
2021/05/06 13:50:18;;;;;;;3.78;1.80;;;768.10;640.00;;;;;;5088672;28;20476;-78
2021/05/06 13:52:46;;;;;;;4.65;2.50;;;742.90;665.60;;;;;;5090613;28;20113;-78
2021/05/06 13:55:13;;;;;;;6.22;1.90;;;742.70;665.60;;;;;;5087861;28;20047;-78
2021/05/06 13:57:40;;;;;;;3.25;1.70;;;717.10;691.20;;;;;;5088617;28;20024;-78
2021/05/06 14:00:06;;;;;;;3.65;2.05;;;717.70;665.60;;;;;;5082182;28;20110;-78
2021/05/06 14:02:32;;;;;;;7.18;2.60;;;716.90;691.20;;;;;;5090111;28;20047;-79
2021/05/06 14:04:58;;;;;;;4.60;1.60;;;717.30;665.60;;;;;;5087371;28;20476;-78
2021/05/06 14:07:24;;;;;;;5.53;2.20;;;717.50;665.60;;;;;;5086560;28;20032;-79
2021/05/06 14:09:49;;;;;;;10.07;3.03;;;717.30;691.20;;;;;;5083633;28;20083;-78
2021/05/06 14:12:15;;;;;;;3.53;2.35;;;716.90;691.20;;;;;;5092976;28;20051;-78
2021/05/06 14:14:41;;;;;;;5.43;2.53;;;716.80;716.80;;;;;;5084145;28;20031;-78
2021/05/06 14:17:07;;;;;;;3.30;2.33;;;717.40;691.20;;;;;;5092864;28;20115;-78
2021/05/06 14:19:34;;;;;;;3.78;2.00;;;717.70;665.60;;;;;;5093469;28;20632;-78
2021/05/06 14:22:01;;;;;;;4.47;2.03;;;691.50;691.20;;;;;;5081902;28;20124;-78
2021/05/06 14:24:26;;;;;;;5.63;2.42;;;716.80;716.80;;;;;;5097235;28;20016;-78
2021/05/06 14:26:54;;;;;;;2.85;1.70;;;717.20;691.20;;;;;;5086205;28;20058;-78
2021/05/06 14:29:19;;;;;;;5.00;1.92;;;717.20;691.20;;;;;;5089140;28;20085;-78
2021/05/06 14:31:45;;;;;;;3.35;1.70;;;717.60;665.60;;;;;;5087213;28;20423;-78
2021/05/06 14:34:11;;;;;;;3.00;2.10;;;717.50;665.60;;;;;;5094334;28;20040;-79
2021/05/06 14:36:37;;;;;;;5.85;2.03;;;717.70;665.60;;;;;;5091759;28;20024;-78
2021/05/06 14:39:04;;;;;;;5.70;2.00;;;717.40;665.60;;;;;;5094942;28;20020;-79
2021/05/06 14:41:30;;;;;;;2.95;1.92;;;717.50;691.20;;;;;;5109719;28;20028;-78
2021/05/06 14:43:57;;;;;;;4.70;1.80;;;717.70;665.60;;;;;;5101906;28;20020;-79
2021/05/06 14:46:24;;;;;;;3.38;1.95;;;717.50;691.20;;;;;;5091527;28;20020;-78
2021/05/06 14:48:50;;;;;;;5.13;2.00;;;717.20;716.80;;;;;;5086409;28;20481;-79
2021/05/06 14:51:16;;;;;;;3.80;1.92;;;716.80;716.80;;;;;;5085956;28;20158;-79
2021/05/06 14:53:42;;;;;;;2.63;1.85;;;716.80;716.80;;;;;;5072999;28;20401;-78
2021/05/06 14:56:08;;;;;;;5.00;1.98;;;716.80;716.80;;;;;;5084154;28;20020;-78
2021/05/06 14:58:33;;;;;;;3.08;1.83;;;691.90;716.80;;;;;;5086832;28;20044;-79
2021/05/06 15:00:59;;;;;;;2.50;1.50;;;717.10;691.20;;;;;;5082819;28;20032;-79
2021/05/06 15:03:25;;;;;;;2.97;1.52;;;691.40;716.80;;;;;;5105522;28;20059;-78
2021/05/06 15:05:51;;;;;;;5.57;2.80;;;692.00;691.20;;;;;;5086966;28;20054;-78
2021/05/06 15:08:18;;;;;;;3.67;2.00;;;716.80;716.80;;;;;;5086386;28;20024;-78
2021/05/06 15:10:45;;;;;;;3.03;1.88;;;666.50;716.80;;;;;;5091791;28;20051;-78
2021/05/06 15:13:11;;;;;;;2.08;1.48;;;665.90;742.40;;;;;;5092008;28;20484;-78
2021/05/06 15:15:36;;;;;;;2.50;1.63;;;665.60;742.40;;;;;;5079882;28;20024;-79
2021/05/06 15:18:02;;;;;;;2.83;1.58;;;665.60;742.40;;;;;;5081779;28;20361;-79
2021/05/06 15:20:29;;;;;;;2.67;1.55;;;640.80;716.80;;;;;;5087730;28;20392;-78
2021/05/06 15:22:55;;;;;;;4.03;1.85;;;665.90;768.00;;;;;;5074446;28;20032;-78
2021/05/06 15:25:21;;;;;;;3.53;1.90;;;666.10;742.40;;;;;;5087680;28;20024;-78
2021/05/06 15:27:47;;;;;;;2.75;1.55;;;665.90;768.00;;;;;;5078552;28;20020;-78
2021/05/06 15:30:14;;;;;;;3.92;1.70;;;665.90;742.40;;;;;;5078878;28;20401;-78
2021/05/06 15:32:40;;;;;;;3.33;1.65;;;665.80;768.00;;;;;;5092489;28;20581;-79
2021/05/06 15:35:08;;;;;;;3.53;1.80;;;665.90;742.40;;;;;;5085302;28;20052;-78
2021/05/06 15:37:35;;;;;;;2.97;2.05;;;665.90;768.00;;;;;;5086885;28;20027;-78
2021/05/06 15:40:01;;;;;;;3.20;1.80;;;640.90;742.40;;;;;;5093453;28;20024;-78
2021/05/06 15:42:26;;;;;;;2.70;1.48;;;640.60;742.40;;;;;;5080624;28;20029;-77
2021/05/06 15:44:52;;;;;;;2.85;1.52;;;640.30;716.80;;;;;;5086343;28;20036;-78
2021/05/06 15:47:18;;;;;;;2.60;1.65;;;640.30;716.80;;;;;;5071550;28;20037;-78
2021/05/06 15:49:44;;;;;;;2.20;1.35;;;640.30;742.40;;;;;;5073451;28;20021;-79
2021/05/06 15:52:12;;;;;;;2.65;1.60;;;640.40;742.40;;;;;;5093007;28;20020;-78
2021/05/06 15:54:41;;;;;;;2.90;1.67;;;640.30;742.40;;;;;;5077968;28;20048;-78
2021/05/06 15:57:08;;;;;;;2.90;1.65;;;640.20;716.80;;;;;;5078066;28;20020;-78
2021/05/06 15:59:37;;;;;;;3.17;2.10;;;640.00;716.80;;;;;;5080768;28;20021;-78
2021/05/06 16:02:06;;;;;;;3.42;2.10;;;615.30;742.40;;;;;;5076378;28;20021;-78
2021/05/06 16:04:35;;;;;;;5.93;1.90;;;615.00;742.40;;;;;;5091910;28;20024;-78
2021/05/06 16:07:01;;;;;;;4.25;1.60;;;615.10;742.40;;;;;;5077426;28;20017;-78